createdAt,value
2018-03-14T00:01:16.007Z,5.10
2018-03-14T00:03:44.249Z,5.60
2018-03-14T00:06:12.466Z,5.57
2018-03-14T00:08:40.700Z,5.47
2018-03-14T00:11:09.688Z,5.60
2018-03-14T00:13:38.697Z,6.00
2018-03-14T00:16:07.803Z,5.60
2018-03-14T00:18:36.041Z,5.20
2018-03-14T00:21:04.260Z,5.93
2018-03-14T00:23:32.504Z,5.47
2018-03-14T00:26:01.496Z,5.20
2018-03-14T00:28:30.492Z,5.47
2018-03-14T00:30:59.484Z,5.10
2018-03-14T00:33:28.486Z,5.00
2018-03-14T00:35:56.707Z,5.70
2018-03-14T00:38:24.940Z,5.20
2018-03-14T00:40:53.159Z,5.33
2018-03-14T00:43:21.384Z,5.03
2018-03-14T00:45:49.599Z,5.27
2018-03-14T00:48:17.836Z,5.13
2018-03-14T00:50:46.062Z,4.37
2018-03-14T00:53:14.292Z,5.10
2018-03-14T00:55:42.512Z,4.80
2018-03-14T00:58:10.760Z,4.30
2018-03-14T01:00:38.990Z,4.93
2018-03-14T01:03:08.264Z,4.73
2018-03-14T01:05:36.532Z,4.83
2018-03-14T01:08:04.750Z,4.53
2018-03-14T01:10:32.985Z,4.77
2018-03-14T01:13:01.210Z,4.43
2018-03-14T01:15:29.449Z,5.03
2018-03-14T01:17:58.437Z,4.47
2018-03-14T01:20:27.437Z,5.23
2018-03-14T01:22:56.423Z,4.83
2018-03-14T01:25:25.423Z,5.00
2018-03-14T01:27:53.640Z,4.73
2018-03-14T01:30:22.258Z,5.10
2018-03-14T01:32:50.463Z,5.03
2018-03-14T01:35:18.701Z,5.13
2018-03-14T01:37:46.921Z,4.97
2018-03-14T01:40:15.160Z,4.97
2018-03-14T01:42:44.146Z,4.80
2018-03-14T01:45:13.148Z,4.80
2018-03-14T01:47:42.133Z,4.70
2018-03-14T01:50:11.140Z,5.90
2018-03-14T01:52:39.357Z,5.40
2018-03-14T01:55:07.595Z,5.30
2018-03-14T01:57:35.811Z,5.20
2018-03-14T02:00:04.810Z,5.20
2018-03-14T04:10:54.845Z,4.80
2018-03-14T04:13:23.084Z,5.20
2018-03-14T04:15:51.312Z,4.90
2018-03-14T04:18:19.548Z,4.87
2018-03-14T04:20:47.772Z,4.80
2018-03-14T04:23:16.788Z,5.20
2018-03-14T04:25:45.009Z,5.67
2018-03-14T04:28:13.264Z,5.60
2018-03-14T04:30:41.488Z,5.37
2018-03-14T04:33:10.480Z,5.33
2018-03-14T04:35:39.485Z,5.40
2018-03-14T04:38:08.468Z,5.47
2018-03-14T04:40:37.481Z,5.37
2018-03-14T04:43:05.711Z,5.90
2018-03-14T04:45:33.941Z,5.60
2018-03-14T04:48:02.161Z,5.27
2018-03-14T04:50:30.396Z,5.90
2018-03-14T04:52:58.924Z,5.73
2018-03-14T04:55:27.153Z,5.40
2018-03-14T04:57:55.381Z,5.37
2018-03-14T05:00:24.380Z,5.50
2018-03-14T05:02:53.368Z,5.17
2018-03-14T05:05:22.376Z,4.90
2018-03-14T05:07:50.601Z,5.73
2018-03-14T05:10:18.836Z,5.47
2018-03-14T05:12:47.060Z,4.90
2018-03-14T05:15:15.301Z,5.67
2018-03-14T05:17:43.532Z,6.20
2018-03-14T05:20:11.764Z,5.90
2018-03-14T05:22:39.993Z,5.27
2018-03-14T05:25:08.227Z,5.37
2018-03-14T05:27:36.440Z,6.40
2018-03-14T05:30:04.677Z,4.70
2018-03-14T05:32:32.904Z,5.10
2018-03-14T05:35:01.145Z,5.43
2018-03-14T05:37:30.132Z,5.00
2018-03-14T05:39:59.141Z,5.03
2018-03-14T05:42:27.371Z,5.13
2018-03-14T05:44:55.592Z,5.60
2018-03-14T05:47:23.836Z,5.13
2018-03-14T05:49:52.825Z,5.37
2018-03-14T05:52:21.829Z,5.70
2018-03-14T05:54:50.828Z,5.23
2018-03-14T05:57:19.830Z,5.90
2018-03-14T05:59:48.059Z,5.00
2018-03-14T06:02:16.294Z,5.00
2018-03-14T06:04:44.516Z,4.93
2018-03-14T06:07:12.755Z,4.90
2018-03-14T06:09:40.981Z,4.70
2018-03-14T06:12:09.988Z,5.63
2018-03-14T06:14:38.220Z,5.13
2018-03-14T06:17:06.448Z,4.80
2018-03-14T06:19:34.668Z,5.03
2018-03-14T06:22:02.905Z,5.00
2018-03-14T06:24:31.404Z,5.13
2018-03-14T06:26:59.633Z,4.83
2018-03-14T06:29:27.877Z,5.07
2018-03-14T06:31:56.120Z,5.07
2018-03-14T06:34:24.345Z,4.70
2018-03-14T06:36:52.588Z,5.63
2018-03-14T06:39:20.809Z,5.47
2018-03-14T06:41:49.046Z,5.37
2018-03-14T06:44:17.270Z,6.03
2018-03-14T06:46:45.517Z,7.30
2018-03-14T06:49:13.800Z,5.60
2018-03-14T06:51:42.045Z,5.60
2018-03-14T06:54:11.040Z,5.83
2018-03-14T06:56:40.025Z,6.03
2018-03-14T06:59:20.884Z,21.50
2018-03-14T07:02:01.168Z,10.47
2018-03-14T07:04:39.313Z,5.70
2018-03-14T07:07:07.569Z,5.33
2018-03-14T07:09:35.796Z,5.23
2018-03-14T07:12:04.017Z,5.43
2018-03-14T07:14:32.260Z,5.47
2018-03-14T07:17:01.248Z,4.90
2018-03-14T07:19:30.257Z,4.90
2018-03-14T07:21:58.477Z,5.40
2018-03-14T07:24:26.710Z,6.10
2018-03-14T07:26:54.940Z,6.00
2018-03-14T07:29:23.175Z,6.17
2018-03-14T07:31:51.389Z,5.53
2018-03-14T07:34:19.637Z,6.87
2018-03-14T07:36:47.868Z,5.23
2018-03-14T07:39:16.876Z,5.43
2018-03-14T07:41:45.106Z,5.00
2018-03-14T07:44:13.348Z,5.40
2018-03-14T07:46:41.572Z,5.50
2018-03-14T07:49:11.450Z,4.73
2018-03-14T07:51:39.676Z,4.80
2018-03-14T07:54:07.950Z,5.30
2018-03-14T07:56:36.184Z,5.20
2018-03-14T07:59:04.424Z,5.00
2018-03-14T08:01:32.645Z,5.23
2018-03-14T08:04:01.649Z,4.70
2018-03-14T08:06:30.657Z,4.83
2018-03-14T08:08:59.292Z,4.77
2018-03-14T08:11:27.507Z,5.20
2018-03-14T08:13:55.796Z,4.70
2018-03-14T08:16:23.976Z,4.40
2018-03-14T08:18:52.189Z,4.60
2018-03-14T08:21:20.435Z,5.07
2018-03-14T08:23:48.640Z,5.50
2018-03-14T08:26:16.881Z,4.70
2018-03-14T08:28:45.109Z,5.40
2018-03-14T08:31:14.115Z,4.63
2018-03-14T08:33:42.333Z,4.70
2018-03-14T08:36:10.572Z,5.07
2018-03-14T08:38:38.797Z,5.07
2018-03-14T08:41:07.033Z,5.57
2018-03-14T08:43:35.275Z,4.70
2018-03-14T08:46:04.281Z,5.13
2018-03-14T08:48:32.500Z,5.00
2018-03-14T08:51:00.732Z,5.50
2018-03-14T08:53:28.957Z,5.80
2018-03-14T08:55:57.200Z,6.00
2018-03-14T08:58:25.424Z,5.23
2018-03-14T09:00:53.988Z,5.47
2018-03-14T09:03:22.209Z,5.93
2018-03-14T09:05:50.448Z,5.30
2018-03-14T09:08:19.444Z,4.83
2018-03-14T09:10:48.449Z,5.10
2018-03-14T09:13:16.679Z,5.47
2018-03-14T09:15:44.973Z,5.23
2018-03-14T09:18:13.961Z,5.60
2018-03-14T09:20:42.940Z,4.40
2018-03-14T09:23:11.176Z,4.47
2018-03-14T09:25:39.392Z,4.40
2018-03-14T09:28:07.633Z,4.53
2018-03-14T09:30:35.860Z,4.47
2018-03-14T09:33:04.905Z,4.40
2018-03-14T09:35:33.309Z,4.67
2018-03-14T09:38:01.545Z,4.67
2018-03-14T09:40:29.773Z,4.53
2018-03-14T09:42:58.773Z,5.40
2018-03-14T09:45:27.765Z,5.00
2018-03-14T09:47:56.001Z,4.27
2018-03-14T09:50:24.228Z,4.30
2018-03-14T09:52:52.469Z,4.53
2018-03-14T09:55:21.461Z,4.50
2018-03-14T09:57:50.477Z,4.87
2018-03-14T10:00:18.697Z,4.50
2018-03-14T10:02:46.936Z,5.63
2018-03-14T10:05:15.161Z,4.83
2018-03-14T10:07:43.393Z,4.23
2018-03-14T10:10:11.638Z,3.60
2018-03-14T10:12:40.621Z,3.37
2018-03-14T10:15:09.612Z,3.20
2018-03-14T10:17:38.621Z,3.70
2018-03-14T10:20:06.846Z,3.57
2018-03-14T10:22:35.340Z,2.90
2018-03-14T10:25:05.148Z,3.10
2018-03-14T10:27:33.384Z,3.50
2018-03-14T10:30:01.610Z,2.80
2018-03-14T10:32:30.600Z,2.90
2018-03-14T10:34:59.883Z,3.13
2018-03-14T10:37:28.097Z,3.20
2018-03-14T10:39:56.341Z,3.23
2018-03-14T10:42:25.382Z,3.20
2018-03-14T10:44:53.569Z,3.37
2018-03-14T10:47:21.796Z,3.13
2018-03-14T10:49:50.797Z,2.90
2018-03-14T10:52:19.022Z,3.33
2018-03-14T10:54:47.264Z,3.40
2018-03-14T10:57:15.488Z,2.70
2018-03-14T10:59:44.496Z,2.93
2018-03-14T11:02:15.305Z,3.10
2018-03-14T11:04:43.787Z,3.20
2018-03-14T11:07:12.004Z,2.80
2018-03-14T11:09:40.236Z,2.80
2018-03-14T11:12:08.460Z,3.13
2018-03-14T11:14:36.696Z,2.80
2018-03-14T11:17:05.689Z,2.80
2018-03-14T11:19:34.701Z,3.20
2018-03-14T11:22:02.935Z,3.10
2018-03-14T11:24:31.168Z,2.90
2018-03-14T11:26:59.392Z,2.53
2018-03-14T11:29:28.402Z,3.13
2018-03-14T11:31:56.624Z,2.93
2018-03-14T11:34:24.866Z,2.50
2018-03-14T11:36:53.087Z,2.80
2018-03-14T11:39:21.332Z,2.73
2018-03-14T11:41:49.540Z,3.27
2018-03-14T11:44:17.759Z,3.00
2018-03-14T11:46:46.033Z,3.77
2018-03-14T11:49:14.260Z,6.10
2018-03-14T11:51:42.500Z,4.23
2018-03-14T11:54:10.728Z,3.77
2018-03-14T11:56:39.735Z,3.47
2018-03-14T11:59:07.965Z,3.50
2018-03-14T12:01:36.196Z,3.00
2018-03-14T12:04:04.421Z,3.17
2018-03-14T12:06:32.651Z,3.23
2018-03-14T12:09:00.884Z,3.17
2018-03-14T12:11:29.886Z,3.20
2018-03-14T12:13:58.869Z,3.93
2018-03-14T12:16:27.877Z,3.30
2018-03-14T12:18:56.103Z,2.80
2018-03-14T12:21:24.329Z,3.13
2018-03-14T12:23:52.556Z,2.73
2018-03-14T12:26:20.791Z,3.13
2018-03-14T12:28:49.002Z,3.33
2018-03-14T12:31:17.228Z,3.07
2018-03-14T12:33:45.447Z,3.03
2018-03-14T12:36:13.732Z,3.17
2018-03-14T12:38:41.950Z,3.17
2018-03-14T12:41:10.190Z,2.97
2018-03-14T12:43:39.188Z,3.70
2018-03-14T12:46:08.193Z,3.13
2018-03-14T12:48:36.408Z,2.97
2018-03-14T12:51:04.644Z,3.40
2018-03-14T12:53:32.874Z,3.30
2018-03-14T12:56:01.121Z,3.10
2018-03-14T12:58:29.341Z,2.90
2018-03-14T13:00:58.329Z,2.90
2018-03-14T13:03:27.334Z,3.00
2018-03-14T13:05:56.325Z,3.60
2018-03-14T13:08:25.330Z,2.80
2018-03-14T13:10:53.549Z,3.03
2018-03-14T13:13:21.782Z,3.20
2018-03-14T13:15:50.007Z,3.40
2018-03-14T13:18:18.236Z,3.30
2018-03-14T13:20:46.463Z,3.10
2018-03-14T13:23:14.692Z,3.00
2018-03-14T13:25:42.922Z,2.80
2018-03-14T13:28:11.973Z,3.30
2018-03-14T13:30:40.220Z,2.80
2018-03-14T13:33:08.501Z,3.00
2018-03-14T13:35:36.793Z,3.20
2018-03-14T13:38:05.019Z,3.07
2018-03-14T13:40:34.010Z,3.00
2018-03-14T13:43:03.012Z,2.97
2018-03-14T13:45:31.234Z,3.60
2018-03-14T13:47:59.476Z,2.97
2018-03-14T13:50:28.013Z,2.87
2018-03-14T13:52:56.244Z,3.00
2018-03-14T13:55:24.464Z,2.90
2018-03-14T13:57:53.469Z,2.57
2018-03-14T14:00:22.452Z,3.17
2018-03-14T14:02:51.453Z,2.97
2018-03-14T14:05:20.441Z,3.20
2018-03-14T14:07:49.453Z,3.43
2018-03-14T14:10:17.705Z,3.30
2018-03-14T14:12:46.692Z,2.90
2018-03-14T14:15:15.700Z,3.30
2018-03-14T14:17:43.916Z,3.23
2018-03-14T14:20:12.154Z,3.03
2018-03-14T14:22:40.378Z,3.20
2018-03-14T14:25:08.608Z,3.30
2018-03-14T14:27:36.864Z,3.33
2018-03-14T14:30:05.072Z,3.17
2018-03-14T14:32:33.284Z,3.43
2018-03-14T14:35:01.534Z,3.80
2018-03-14T14:37:29.757Z,3.93
2018-03-14T14:39:58.756Z,3.87
2018-03-14T14:42:26.982Z,4.17
2018-03-14T14:44:55.221Z,4.20
2018-03-14T14:47:23.441Z,3.40
2018-03-14T14:49:51.681Z,3.87
2018-03-14T14:52:19.907Z,3.93
2018-03-14T14:54:48.913Z,3.90
2018-03-14T14:57:17.134Z,4.60
2018-03-14T14:59:45.371Z,4.50
2018-03-14T15:02:13.593Z,4.30
2018-03-14T15:04:41.833Z,4.40
2018-03-14T15:07:10.060Z,5.10
2018-03-14T15:09:39.065Z,8.40
2018-03-14T15:12:07.288Z,8.63
2018-03-14T15:14:35.541Z,9.40
2018-03-14T15:17:03.773Z,11.00
2018-03-14T15:19:32.784Z,13.03
2018-03-14T15:22:01.021Z,19.23
2018-03-14T15:24:29.253Z,19.87
2018-03-14T15:26:57.500Z,18.93
2018-03-14T15:29:25.728Z,17.20
2018-03-14T15:31:53.974Z,18.03
2018-03-14T15:34:22.209Z,19.30
2018-03-14T15:36:51.228Z,21.60
2018-03-14T15:39:19.464Z,23.00
2018-03-14T15:41:48.474Z,21.73
2018-03-14T15:44:16.712Z,20.20
2018-03-14T15:46:44.957Z,20.30
2018-03-14T15:49:13.220Z,20.67
2018-03-14T15:51:41.457Z,18.33
2018-03-14T15:54:10.460Z,20.37
2018-03-14T15:56:39.475Z,19.90
2018-03-14T15:59:07.709Z,18.23
2018-03-14T16:01:35.953Z,18.80
2018-03-14T16:04:04.184Z,17.13
2018-03-14T16:06:32.437Z,14.00
2018-03-14T16:09:01.508Z,11.23
2018-03-14T16:11:29.725Z,12.93
2018-03-14T16:13:58.281Z,12.80
2018-03-14T16:16:27.292Z,12.30
2018-03-14T16:18:55.576Z,11.73
2018-03-14T16:21:23.856Z,12.17
2018-03-14T16:23:52.828Z,11.93
2018-03-14T16:26:21.076Z,11.40
2018-03-14T16:28:49.321Z,10.37
2018-03-14T16:31:17.578Z,11.27
2018-03-14T16:33:45.808Z,9.90
2018-03-14T16:36:14.805Z,9.23
2018-03-14T16:38:43.812Z,9.80
2018-03-14T16:41:12.032Z,9.67
2018-03-14T16:43:40.274Z,9.20
2018-03-14T16:46:08.516Z,8.60
2018-03-14T16:48:37.517Z,9.00
2018-03-14T16:51:05.745Z,8.73
2018-03-14T16:53:33.992Z,8.97
2018-03-14T16:56:02.216Z,8.60
2018-03-14T16:58:30.460Z,8.93
2018-03-14T17:00:59.481Z,8.20
2018-03-14T17:03:27.784Z,9.10
2018-03-14T17:05:56.390Z,9.03
2018-03-14T17:08:24.781Z,9.30
2018-03-14T17:10:53.008Z,9.87
2018-03-14T17:13:22.640Z,10.83
2018-03-14T17:15:51.634Z,11.90
2018-03-14T17:18:19.969Z,12.97
2018-03-14T17:20:49.298Z,14.00
2018-03-14T17:23:18.329Z,14.90
2018-03-14T17:25:47.310Z,14.13
2018-03-14T17:28:16.241Z,14.43
2018-03-14T17:30:45.018Z,14.60
2018-03-14T17:33:13.818Z,14.23
2018-03-14T17:35:42.241Z,13.50
2018-03-14T17:38:10.563Z,14.83
2018-03-14T17:40:39.543Z,14.67
2018-03-14T17:43:07.800Z,14.43
2018-03-14T17:45:36.030Z,14.63
2018-03-14T17:48:04.293Z,14.47
2018-03-14T17:50:33.304Z,14.40
2018-03-14T17:53:01.551Z,15.30
2018-03-14T17:55:30.850Z,15.10
2018-03-14T17:57:59.845Z,15.33
2018-03-14T18:00:29.276Z,14.03
2018-03-14T18:02:57.550Z,13.33
2018-03-14T18:05:25.796Z,13.60
2018-03-14T18:07:54.798Z,14.03
2018-03-14T18:10:23.048Z,13.70
2018-03-14T18:12:52.337Z,13.23
2018-03-14T18:15:20.581Z,12.33
2018-03-14T18:17:48.875Z,11.80
2018-03-14T18:20:20.586Z,10.37
2018-03-14T18:22:49.960Z,11.20
2018-03-14T18:25:18.965Z,10.93
2018-03-14T18:27:47.254Z,10.30
2018-03-14T18:30:16.245Z,10.17
2018-03-14T18:32:44.481Z,9.90
2018-03-14T18:35:12.728Z,10.23
2018-03-14T18:37:40.961Z,10.50
2018-03-14T18:40:09.208Z,9.73
2018-03-14T18:42:38.897Z,9.97
2018-03-14T18:45:07.597Z,11.13
2018-03-14T18:47:35.829Z,10.33
2018-03-14T18:50:04.084Z,9.03
2018-03-14T18:52:32.296Z,9.50
2018-03-14T18:55:00.537Z,9.80
2018-03-14T18:57:28.768Z,8.57
2018-03-14T18:59:57.776Z,9.23
2018-03-14T19:02:26.437Z,8.97
2018-03-14T19:04:55.361Z,8.37
2018-03-14T19:07:24.311Z,8.10
2018-03-14T19:09:53.313Z,7.40
2018-03-14T19:12:22.220Z,7.27
2018-03-14T19:14:51.270Z,7.80
2018-03-14T19:17:20.254Z,7.67
2018-03-14T19:19:49.075Z,8.43
2018-03-14T19:22:18.029Z,7.90
2018-03-14T19:24:46.397Z,7.87
2018-03-14T19:27:15.271Z,7.33
2018-03-14T19:29:50.317Z,7.80
2018-03-14T19:32:19.283Z,8.07
2018-03-14T19:34:48.848Z,7.67
2018-03-14T19:37:17.665Z,7.33
2018-03-14T19:39:46.456Z,7.20
2018-03-14T19:42:14.816Z,6.83
2018-03-14T19:44:43.812Z,7.47
2018-03-14T19:47:12.816Z,7.23
2018-03-14T19:49:41.045Z,8.60
2018-03-14T19:52:09.284Z,8.20
2018-03-14T19:54:37.528Z,9.70
2018-03-14T19:57:06.540Z,10.30
2018-03-14T19:59:34.780Z,9.43
2018-03-14T20:02:03.788Z,9.00
2018-03-14T20:04:32.795Z,9.33
2018-03-14T20:07:01.044Z,9.03
2018-03-14T20:09:30.032Z,9.20
2018-03-14T20:11:59.036Z,9.43
2018-03-14T20:14:28.045Z,10.07
2018-03-14T20:16:56.285Z,9.97
2018-03-14T20:19:25.320Z,10.70
2018-03-14T20:21:53.546Z,10.93
2018-03-14T20:24:21.769Z,11.53
2018-03-14T20:26:50.030Z,11.63
2018-03-14T20:29:18.275Z,12.33
2018-03-14T20:31:47.265Z,12.53
2018-03-14T20:34:16.293Z,12.80
2018-03-14T20:36:44.533Z,13.13
2018-03-14T20:39:13.613Z,14.10
2018-03-14T20:41:41.845Z,13.23
2018-03-14T20:44:10.096Z,14.43
2018-03-14T20:46:38.332Z,14.33
2018-03-14T20:49:06.576Z,13.70
2018-03-14T20:51:34.815Z,14.20
2018-03-14T20:54:03.081Z,14.40
2018-03-14T20:56:32.077Z,15.17
2018-03-14T20:59:00.341Z,15.07
2018-03-14T21:01:29.341Z,15.43
2018-03-14T21:03:58.349Z,15.77
2018-03-14T21:06:26.585Z,16.23
2018-03-14T21:08:55.640Z,15.27
2018-03-14T21:11:24.632Z,16.60
2018-03-14T21:13:52.881Z,15.80
2018-03-14T21:16:23.624Z,16.03
2018-03-14T21:18:51.874Z,15.13
2018-03-14T21:21:20.105Z,15.30
2018-03-14T21:23:48.352Z,16.37
2018-03-14T21:26:16.588Z,14.90
2018-03-14T21:28:45.616Z,16.67
2018-03-14T21:31:13.846Z,15.80
2018-03-14T21:33:42.856Z,15.60
2018-03-14T21:36:11.097Z,15.83
2018-03-14T21:38:39.369Z,16.70
2018-03-14T21:41:07.625Z,16.03
2018-03-14T21:43:35.828Z,16.37
2018-03-14T21:46:04.852Z,17.30
2018-03-14T21:48:33.080Z,15.83
2018-03-14T21:51:01.329Z,16.07
2018-03-14T21:53:29.562Z,15.50
2018-03-14T21:55:57.814Z,16.17
2018-03-14T21:58:26.820Z,15.27
2018-03-14T22:00:55.833Z,15.77
2018-03-14T22:03:24.070Z,15.53
2018-03-14T22:05:53.080Z,14.10
2018-03-14T22:08:21.336Z,15.07
2018-03-14T22:10:49.560Z,13.77
2018-03-14T22:13:17.814Z,13.23
2018-03-14T22:15:46.821Z,12.43
2018-03-14T22:18:15.048Z,12.20
2018-03-14T22:20:43.292Z,12.00
2018-03-14T22:23:11.525Z,11.67
2018-03-14T22:25:39.772Z,12.50
2018-03-14T22:28:08.768Z,11.63
2018-03-14T22:30:37.829Z,11.63
2018-03-14T22:33:06.029Z,11.57
2018-03-14T22:35:35.044Z,10.97
2018-03-14T22:38:03.284Z,10.83
2018-03-14T22:40:31.527Z,10.23
2018-03-14T22:42:59.764Z,10.83
2018-03-14T22:45:28.012Z,10.60
2018-03-14T22:47:57.004Z,9.87
2018-03-14T22:50:25.577Z,10.37
2018-03-14T22:52:54.544Z,9.63
2018-03-14T22:55:22.785Z,9.70
2018-03-14T22:57:51.056Z,9.63
2018-03-14T23:00:19.291Z,9.67
2018-03-14T23:02:47.529Z,9.90
2018-03-14T23:05:15.769Z,9.57
2018-03-14T23:07:44.772Z,9.83
2018-03-14T23:10:13.011Z,10.20
2018-03-14T23:12:42.020Z,10.30
2018-03-14T23:15:10.262Z,10.43
2018-03-14T23:17:38.516Z,9.97
2018-03-14T23:20:06.749Z,9.53
2018-03-14T23:22:34.993Z,9.03
2018-03-14T23:25:03.220Z,9.07
2018-03-14T23:27:31.467Z,10.00
2018-03-14T23:29:59.700Z,9.10
2018-03-14T23:32:27.937Z,9.50
2018-03-14T23:34:56.370Z,9.30
2018-03-14T23:37:24.612Z,9.37
2018-03-14T23:39:52.837Z,9.47
2018-03-14T23:42:21.856Z,10.70
2018-03-14T23:44:50.088Z,9.53
2018-03-14T23:47:19.100Z,10.90
2018-03-14T23:49:47.325Z,10.33
2018-03-14T23:52:15.679Z,10.27
2018-03-14T23:54:43.900Z,9.80
2018-03-14T23:57:12.925Z,10.30
2018-03-14T23:59:41.152Z,9.97
